Terminal Aerodrome Forecast
Issued by NWS

Current Version | Previous Version | Text Only | Print | Product List | Glossary On
Versions: 1 2 3 4 5 6 7 8 9 10 11 12 13 14 15 16 17 18 19
931
FTUS46 KMTR 240520
TAFOAK
TAF
KOAK 240520Z 2406/2512 26013KT P6SM OVC015
     FM240800 26006KT P6SM OVC015
     FM241800 26014G19KT P6SM FEW020 BKN100
     FM250300 26010KT P6SM FEW020
     FM250500 26008KT P6SM OVC015=

USA.gov is the U.S. government's official web portal to all federal, state and local government web resources and services.